Time,TemperatureF,DewpointF,PressureIn,WindDirection,WindDirectionDegrees,WindSpeedMPH,WindSpeedGustMPH,Humidity,HourlyPrecipIn,Conditions,Clouds,dailyrainin,SoftwareType,DateUTC
2013-06-28 00:29:00,61.7,54.4,30.30,NE,45,0.0,2.0,77,0.00,,FEW,0.00,WeatherDisplay:10.37,2013-06-27 23:29:00,
2013-06-28 00:59:00,61.7,54.8,30.29,NE,45,0.0,4.0,78,0.00,,FEW,0.00,WeatherDisplay:10.37,2013-06-27 23:59:00,
2013-06-28 01:29:00,61.3,54.4,30.29,NE,45,0.0,2.0,78,0.00,,FEW,0.00,WeatherDisplay:10.37,2013-06-28 00:29:00,
2013-06-28 02:29:00,60.6,53.7,30.26,NE,45,0.0,4.0,78,0.00,,FEW,0.00,WeatherDisplay:10.37,2013-06-28 01:29:00,
2013-06-28 03:29:00,60.1,53.2,30.25,NE,45,0.0,8.0,78,0.00,,FEW,0.00,WeatherDisplay:10.37,2013-06-28 02:29:00,
2013-06-28 03:59:00,59.5,52.7,30.25,NE,45,0.0,7.0,78,0.00,,FEW,0.00,WeatherDisplay:10.37,2013-06-28 02:59:00,
2013-06-28 04:29:00,59.0,52.1,30.24,NE,45,0.0,13.0,78,0.00,,FEW,0.00,WeatherDisplay:10.37,2013-06-28 03:29:00,
2013-06-28 04:59:00,58.3,51.4,30.24,NE,45,0.0,8.0,78,0.00,,FEW,0.00,WeatherDisplay:10.37,2013-06-28 03:59:00,
2013-06-28 05:29:00,58.1,51.3,30.23,NE,45,0.0,11.0,78,0.00,,FEW,0.00,WeatherDisplay:10.37,2013-06-28 04:29:00,
2013-06-28 05:59:00,57.9,51.1,30.23,NE,45,0.0,14.0,78,0.00,,FEW,0.00,WeatherDisplay:10.37,2013-06-28 04:59:00,
2013-06-28 06:29:00,57.6,50.8,30.24,NE,45,0.0,13.0,78,0.00,,FEW,0.00,WeatherDisplay:10.37,2013-06-28 05:29:00,
2013-06-28 06:59:00,57.2,50.4,30.24,NE,45,0.0,14.0,78,0.00,,FEW,0.00,WeatherDisplay:10.37,2013-06-28 05:59:00,
2013-06-28 07:29:00,56.8,50.4,30.23,NE,45,0.0,10.0,79,0.00,,FEW,0.00,WeatherDisplay:10.37,2013-06-28 06:29:00,
2013-06-28 07:59:00,57.4,50.9,30.22,NE,45,0.0,11.0,79,0.00,,FEW,0.00,WeatherDisplay:10.37,2013-06-28 06:59:00,
2013-06-28 08:29:00,58.5,52.0,30.21,NE,45,0.0,8.0,79,0.00,,FEW,0.00,WeatherDisplay:10.37,2013-06-28 07:29:00,
2013-06-28 08:59:00,59.2,52.7,30.20,NE,45,0.0,6.0,79,0.00,,FEW,0.00,WeatherDisplay:10.37,2013-06-28 07:59:00,
2013-06-28 09:29:00,62.1,55.5,30.20,NE,45,0.0,8.0,79,0.00,,FEW,0.00,WeatherDisplay:10.37,2013-06-28 08:29:00,
2013-06-28 09:59:00,63.2,55.5,30.19,NE,45,0.0,8.0,76,0.00,,FEW,0.00,WeatherDisplay:10.37,2013-06-28 08:59:00,
2013-06-28 10:29:00,64.8,56.3,30.19,NE,45,0.0,11.0,74,0.00,,FEW,0.00,WeatherDisplay:10.37,2013-06-28 09:29:00,
2013-06-28 10:59:00,64.8,55.5,30.18,NE,45,0.0,12.0,72,0.00,,FEW,0.00,WeatherDisplay:10.37,2013-06-28 09:59:00,
2013-06-28 11:29:00,64.8,55.5,30.17,NE,45,0.0,5.0,72,0.00,,FEW,0.00,WeatherDisplay:10.37,2013-06-28 10:29:00,
2013-06-28 11:59:00,64.9,55.7,30.17,NE,45,0.0,15.0,72,0.00,,FEW,0.00,WeatherDisplay:10.37,2013-06-28 10:59:00,
2013-06-28 12:29:00,63.9,54.3,30.16,NE,45,0.0,12.0,71,0.00,,FEW,0.00,WeatherDisplay:10.37,2013-06-28 11:29:00,
2013-06-28 12:59:00,63.3,54.5,30.15,NE,45,0.0,17.0,73,0.00,,FEW,0.00,WeatherDisplay:10.37,2013-06-28 11:59:00,
2013-06-28 13:29:00,63.3,54.5,30.16,NE,45,0.0,6.0,73,0.00,,FEW,0.00,WeatherDisplay:10.37,2013-06-28 12:29:00,
2013-06-28 13:59:00,62.8,54.0,30.16,NE,45,0.0,6.0,73,0.00,,FEW,0.00,WeatherDisplay:10.37,2013-06-28 12:59:00,
2013-06-28 14:29:00,62.5,54.1,30.16,NE,45,0.0,8.0,74,0.00,,FEW,0.00,WeatherDisplay:10.37,2013-06-28 13:29:00,
2013-06-28 14:59:00,63.0,54.2,30.16,NE,45,0.0,17.0,73,0.00,,FEW,0.00,WeatherDisplay:10.37,2013-06-28 13:59:00,
2013-06-28 15:29:00,63.9,54.7,30.15,NE,45,0.0,11.0,72,0.00,,FEW,0.00,WeatherDisplay:10.37,2013-06-28 14:29:00,
2013-06-28 15:59:00,63.5,54.3,30.16,NE,45,0.0,9.0,72,0.00,,FEW,0.00,WeatherDisplay:10.37,2013-06-28 14:59:00,
2013-06-28 16:29:00,63.3,54.5,30.15,NE,45,0.0,10.0,73,0.00,,FEW,0.00,WeatherDisplay:10.37,2013-06-28 15:29:00,
2013-06-28 16:59:00,64.0,55.6,30.15,NE,45,0.0,8.0,74,0.00,,FEW,0.00,WeatherDisplay:10.37,2013-06-28 15:59:00,
2013-06-28 17:29:00,64.8,55.1,30.15,NE,45,0.0,10.0,71,0.00,,FEW,0.00,WeatherDisplay:10.37,2013-06-28 16:29:00,
2013-06-28 17:59:00,65.8,55.4,30.15,NE,45,0.0,9.0,69,0.00,,FEW,0.00,WeatherDisplay:10.37,2013-06-28 16:59:00,
2013-06-28 18:29:00,64.8,54.3,30.16,NE,45,0.0,15.0,69,0.00,,FEW,0.00,WeatherDisplay:10.37,2013-06-28 17:29:00,
2013-06-28 18:59:00,64.8,53.9,30.16,NE,45,0.0,13.0,68,0.00,,FEW,0.00,WeatherDisplay:10.37,2013-06-28 17:59:00,
2013-06-28 19:29:00,64.9,54.1,30.17,NE,45,0.0,6.0,68,0.00,,FEW,0.00,WeatherDisplay:10.37,2013-06-28 18:29:00,
2013-06-28 19:59:00,64.1,53.3,30.18,NE,45,0.0,7.0,68,0.00,,FEW,0.00,WeatherDisplay:10.37,2013-06-28 18:59:00,
2013-06-28 20:29:00,63.5,52.3,30.17,NE,45,0.0,5.0,67,0.00,,FEW,0.00,WeatherDisplay:10.37,2013-06-28 19:29:00,
2013-06-28 20:59:00,62.2,51.5,30.20,NE,45,0.0,8.0,68,0.00,,FEW,0.00,WeatherDisplay:10.37,2013-06-28 19:59:00,
2013-06-28 21:29:00,60.6,49.6,30.20,NE,45,0.0,2.0,67,0.00,,FEW,0.00,WeatherDisplay:10.37,2013-06-28 20:29:00,
2013-06-28 21:59:00,59.7,48.7,30.22,NE,45,0.0,8.0,67,0.00,,FEW,0.00,WeatherDisplay:10.37,2013-06-28 20:59:00,
2013-06-28 22:29:00,58.5,47.9,30.22,NE,45,0.0,3.0,68,0.00,,FEW,0.00,WeatherDisplay:10.37,2013-06-28 21:29:00,
2013-06-28 22:59:00,57.2,47.2,30.23,NE,45,0.0,2.0,69,0.00,,FEW,0.00,WeatherDisplay:10.37,2013-06-28 21:59:00,
2013-06-28 23:28:00,56.3,46.3,30.25,NE,45,0.0,2.0,69,0.00,,FEW,0.00,WeatherDisplay:10.37,2013-06-28 22:28:00,